Time;durP1;ratioP1;P1;durP2;ratioP2;P2;SDS_P1;SDS_P2;PMS_P1;PMS_P2;Temp;Humidity;BMP_temperature;BMP_pressure;BME280_temperature;BME280_humidity;BME280_pressure;Samples;Min_cycle;Max_cycle;Signal;HPM_P1;HPM_P2
2022/08/21 00:00:45;;;;;;;12.10;4.22;;;18.20;99.90;;;;;;5054148;28;20029;-70
2022/08/21 00:03:12;;;;;;;15.60;3.78;;;18.30;99.90;;;;;;5054361;28;20100;-80
2022/08/21 00:05:50;;;;;;;12.52;3.58;;;17.90;99.90;;;;;;5054305;28;20029;-70
2022/08/21 00:08:17;;;;;;;10.05;3.72;;;17.90;99.90;;;;;;5054550;28;20056;-70
2022/08/21 00:10:44;;;;;;;13.43;3.92;;;17.80;99.90;;;;;;5036251;28;20017;-69
2022/08/21 00:13:12;;;;;;;13.77;3.97;;;17.70;99.90;;;;;;5053951;28;20060;-76
2022/08/21 00:15:39;;;;;;;13.55;3.97;;;17.70;99.90;;;;;;5054081;28;20124;-72
2022/08/21 00:18:06;;;;;;;12.00;3.33;;;17.80;99.90;;;;;;5054184;28;20021;-70
2022/08/21 00:20:33;;;;;;;12.88;3.25;;;17.90;99.90;;;;;;5054313;28;20473;-69
2022/08/21 00:22:59;;;;;;;10.60;3.80;;;18.10;99.90;;;;;;5054040;28;20056;-70
2022/08/21 00:25:26;;;;;;;11.77;3.58;;;18.00;99.90;;;;;;5054001;28;20060;-69
2022/08/21 00:27:52;;;;;;;12.00;2.80;;;17.40;99.90;;;;;;5053745;28;20025;-69
2022/08/21 00:30:19;;;;;;;14.00;3.85;;;17.20;99.90;;;;;;5054087;28;20086;-71
2022/08/21 00:32:46;;;;;;;11.13;3.45;;;17.20;99.90;;;;;;5035958;28;20032;-74
2022/08/21 00:35:14;;;;;;;10.43;3.50;;;17.60;99.90;;;;;;5053790;28;20056;-70
2022/08/21 00:37:41;;;;;;;17.42;3.65;;;17.70;99.90;;;;;;5053914;28;20112;-70
2022/08/21 00:40:10;;;;;;;9.18;3.70;;;17.90;99.90;;;;;;5053708;28;20053;-76
2022/08/21 00:42:37;;;;;;;8.88;3.03;;;18.00;99.90;;;;;;5035228;28;20068;-73
2022/08/21 00:45:04;;;;;;;8.85;3.15;;;18.00;99.90;;;;;;5051887;28;20121;-76
2022/08/21 00:47:30;;;;;;;13.65;3.50;;;17.80;99.90;;;;;;5053152;28;20028;-81
2022/08/21 00:49:56;;;;;;;11.13;3.40;;;17.80;99.90;;;;;;5054101;28;20530;-81
2022/08/21 00:52:29;;;;;;;12.35;3.40;;;17.80;99.90;;;;;;5053340;28;20033;-80
2022/08/21 00:54:57;;;;;;;12.13;3.58;;;17.60;99.90;;;;;;5053588;28;20033;-79
2022/08/21 00:57:30;;;;;;;12.65;3.65;;;17.40;99.90;;;;;;5035036;28;20032;-80
2022/08/21 00:59:59;;;;;;;16.75;3.63;;;17.30;99.90;;;;;;5053397;28;20378;-80
2022/08/21 01:02:26;;;;;;;9.07;2.92;;;17.50;99.90;;;;;;5053141;28;20114;-81
2022/08/21 01:04:52;;;;;;;13.15;3.50;;;17.50;99.90;;;;;;5053280;28;20075;-80
2022/08/21 01:07:18;;;;;;;13.20;3.55;;;17.60;99.90;;;;;;5052017;28;20037;-79
2022/08/21 01:09:46;;;;;;;12.45;3.03;;;17.40;99.90;;;;;;5053184;28;20092;-81
2022/08/21 01:12:13;;;;;;;10.13;3.22;;;17.10;99.90;;;;;;5052785;28;20035;-80
2022/08/21 01:14:41;;;;;;;13.40;3.20;;;17.00;99.90;;;;;;5053226;28;20021;-81
2022/08/21 01:17:08;;;;;;;14.65;3.33;;;17.10;99.90;;;;;;5053169;28;20049;-81
2022/08/21 01:19:34;;;;;;;13.43;3.75;;;17.00;99.90;;;;;;5052883;28;20021;-81
2022/08/21 01:22:00;;;;;;;19.67;3.55;;;17.00;99.90;;;;;;5053113;28;20370;-81
2022/08/21 01:24:26;;;;;;;12.00;2.95;;;17.10;99.90;;;;;;5052049;28;20017;-81
2022/08/21 01:26:53;;;;;;;13.45;3.28;;;17.00;99.90;;;;;;5052987;28;20033;-80
2022/08/21 01:29:39;;;;;;;9.38;3.22;;;17.10;99.90;;;;;;5052786;28;20017;-81
2022/08/21 01:32:10;;;;;;;9.10;3.40;;;17.20;99.90;;;;;;5052626;28;20389;-81
2022/08/21 01:34:38;;;;;;;15.25;3.83;;;17.30;99.90;;;;;;5052821;28;20139;-79
2022/08/21 01:37:04;;;;;;;13.85;4.35;;;17.40;99.90;;;;;;5052695;28;20021;-76
2022/08/21 01:39:30;;;;;;;10.85;3.45;;;17.30;99.90;;;;;;5052752;28;20051;-80
2022/08/21 01:41:56;;;;;;;14.10;3.45;;;17.20;99.90;;;;;;5052293;28;20473;-81
2022/08/21 01:44:22;;;;;;;10.63;3.65;;;16.90;99.90;;;;;;5035115;28;20037;-75
2022/08/21 01:46:49;;;;;;;12.15;3.35;;;16.80;99.90;;;;;;5052465;28;20037;-73
2022/08/21 01:49:15;;;;;;;10.70;3.90;;;16.80;99.90;;;;;;5052887;28;20029;-73
2022/08/21 01:51:41;;;;;;;15.13;4.10;;;16.50;99.90;;;;;;5052734;28;20033;-72
2022/08/21 01:54:07;;;;;;;10.02;3.70;;;16.40;99.90;;;;;;5052513;28;20021;-70
2022/08/21 01:56:44;;;;;;;15.70;4.18;;;16.60;99.90;;;;;;5052609;28;20044;-71
2022/08/21 01:59:10;;;;;;;11.25;4.07;;;16.80;99.90;;;;;;5052513;28;20021;-71
2022/08/21 02:01:39;;;;;;;11.25;4.57;;;16.90;99.90;;;;;;5052808;28;20032;-71
2022/08/21 02:04:06;;;;;;;12.38;3.92;;;16.70;99.90;;;;;;5052395;28;20032;-72
2022/08/21 02:06:32;;;;;;;20.05;3.85;;;16.60;99.90;;;;;;5052481;28;20021;-74
2022/08/21 02:08:58;;;;;;;12.98;4.07;;;16.40;99.90;;;;;;5052397;28;20056;-71
2022/08/21 02:11:24;;;;;;;15.55;3.65;;;16.10;99.90;;;;;;5034864;28;20025;-72
2022/08/21 02:13:50;;;;;;;12.25;3.97;;;16.00;99.90;;;;;;5052487;28;20025;-73
2022/08/21 02:16:16;;;;;;;14.63;3.55;;;16.00;99.90;;;;;;5034692;28;20457;-70
2022/08/21 02:18:42;;;;;;;12.25;3.83;;;16.10;99.90;;;;;;5052600;28;20071;-74
2022/08/21 02:21:08;;;;;;;15.90;3.83;;;16.20;99.90;;;;;;5052367;28;20079;-71
2022/08/21 02:23:34;;;;;;;12.90;3.85;;;16.30;99.90;;;;;;5052187;28;20469;-73
2022/08/21 02:26:02;;;;;;;10.02;3.63;;;16.20;99.90;;;;;;5052189;28;20035;-73
2022/08/21 02:28:28;;;;;;;15.63;3.90;;;15.80;99.90;;;;;;5034738;28;20119;-73
2022/08/21 02:30:55;;;;;;;9.82;3.65;;;16.00;99.90;;;;;;5034434;28;20021;-71
2022/08/21 02:33:22;;;;;;;12.13;4.03;;;16.10;99.90;;;;;;5044859;28;20033;-70
2022/08/21 02:35:49;;;;;;;21.00;3.92;;;16.00;99.90;;;;;;5055138;28;20060;-70
2022/08/21 02:38:19;;;;;;;13.88;4.00;;;15.80;99.90;;;;;;5055864;28;20065;-71
2022/08/21 02:40:48;;;;;;;16.63;3.35;;;15.70;99.90;;;;;;5042338;28;20033;-70
2022/08/21 02:43:15;;;;;;;14.60;3.53;;;15.80;99.90;;;;;;5056192;28;20013;-70
2022/08/21 02:45:42;;;;;;;16.30;4.68;;;15.90;99.90;;;;;;5055994;28;20072;-75
2022/08/21 02:48:11;;;;;;;14.25;3.63;;;15.80;99.90;;;;;;5056046;28;20028;-70
2022/08/21 02:50:46;;;;;;;13.52;3.60;;;15.80;99.90;;;;;;5055799;28;20021;-71
2022/08/21 02:53:15;;;;;;;11.82;3.22;;;15.80;99.90;;;;;;5055629;28;20022;-70
2022/08/21 02:55:43;;;;;;;9.77;3.40;;;15.50;99.90;;;;;;5056008;28;20492;-71
2022/08/21 02:58:09;;;;;;;12.13;3.50;;;15.60;99.90;;;;;;5055726;28;20040;-70
2022/08/21 03:00:36;;;;;;;11.68;2.90;;;15.70;99.90;;;;;;5055729;28;20037;-73
2022/08/21 03:03:03;;;;;;;11.43;3.08;;;15.70;99.90;;;;;;5055705;28;20020;-70
2022/08/21 03:05:33;;;;;;;15.98;3.78;;;15.60;99.90;;;;;;5055841;28;20469;-71
2022/08/21 03:08:00;;;;;;;14.00;3.42;;;15.60;99.90;;;;;;5055177;28;20041;-69
2022/08/21 03:10:26;;;;;;;14.43;3.80;;;15.70;99.90;;;;;;5055615;28;20040;-70
2022/08/21 03:12:54;;;;;;;11.20;2.78;;;15.80;99.90;;;;;;5055621;28;20108;-69
2022/08/21 03:15:26;;;;;;;12.18;3.20;;;15.70;99.90;;;;;;5037314;28;20568;-70
2022/08/21 03:17:54;;;;;;;;;;;15.70;99.90;;;;;;5055990;28;20043;-71
2022/08/21 03:20:23;;;;;;;11.90;3.22;;;15.50;99.90;;;;;;5055286;28;19908;-72
2022/08/21 03:22:50;;;;;;;22.98;4.47;;;15.50;99.90;;;;;;5055157;28;20381;-70
2022/08/21 03:25:15;;;;;;;13.77;2.80;;;15.50;99.90;;;;;;5041818;28;20460;-71
2022/08/21 03:27:42;;;;;;;14.52;3.17;;;15.60;99.90;;;;;;5055546;28;20056;-73
2022/08/21 03:30:08;;;;;;;14.57;3.65;;;15.60;99.90;;;;;;5057892;28;20036;-73
2022/08/21 03:32:35;;;;;;;12.88;3.58;;;15.60;99.90;;;;;;5061328;28;20433;-70
2022/08/21 03:35:02;;;;;;;13.07;3.42;;;15.60;99.90;;;;;;5055210;28;20053;-70
2022/08/21 03:37:28;;;;;;;12.68;3.40;;;15.60;99.90;;;;;;5054815;28;20044;-81
2022/08/21 03:39:54;;;;;;;17.63;3.22;;;15.60;99.90;;;;;;5054966;28;20025;-81
2022/08/21 03:42:20;;;;;;;11.10;2.97;;;15.70;99.90;;;;;;5054500;28;20064;-80
2022/08/21 03:44:45;;;;;;;17.48;3.13;;;15.90;99.90;;;;;;5054894;28;20024;-81
2022/08/21 03:47:11;;;;;;;13.70;3.10;;;15.90;99.90;;;;;;5054135;28;20020;-81
2022/08/21 03:49:37;;;;;;;13.38;3.33;;;15.70;99.90;;;;;;5054808;28;20025;-81
2022/08/21 03:52:04;;;;;;;12.35;3.05;;;15.60;99.90;;;;;;5054339;28;20044;-80
2022/08/21 03:54:30;;;;;;;9.05;2.90;;;15.70;99.90;;;;;;5054433;28;20044;-79
2022/08/21 03:56:56;;;;;;;10.82;2.95;;;15.80;99.90;;;;;;5054681;28;20079;-81
2022/08/21 03:59:22;;;;;;;20.45;3.90;;;15.90;99.90;;;;;;5054621;28;20043;-81
2022/08/21 04:01:56;;;;;;;16.88;3.20;;;15.80;99.90;;;;;;5054465;28;20025;-81
2022/08/21 04:04:22;;;;;;;13.35;2.95;;;16.00;99.90;;;;;;5054583;28;20091;-78
2022/08/21 04:06:49;;;;;;;17.45;3.10;;;16.00;99.90;;;;;;5054052;28;20372;-81
2022/08/21 04:09:16;;;;;;;12.75;3.15;;;16.00;99.90;;;;;;5054706;28;20032;-79
2022/08/21 04:11:42;;;;;;;19.20;2.83;;;15.60;99.90;;;;;;5054195;28;20025;-81
2022/08/21 04:14:08;;;;;;;10.23;3.03;;;15.50;99.90;;;;;;5054327;28;20039;-81
2022/08/21 04:16:33;;;;;;;15.45;3.33;;;15.40;99.90;;;;;;5052683;28;20087;-79
2022/08/21 04:19:01;;;;;;;13.38;3.03;;;15.50;99.90;;;;;;5054389;28;20484;-79
2022/08/21 04:21:27;;;;;;;8.82;3.03;;;15.50;99.90;;;;;;5053766;28;20036;-79
2022/08/21 04:23:54;;;;;;;11.32;3.00;;;15.50;99.90;;;;;;5054203;28;20055;-81
2022/08/21 04:26:20;;;;;;;15.43;3.33;;;15.40;99.90;;;;;;5054046;28;20044;-81
2022/08/21 04:28:46;;;;;;;10.65;2.95;;;15.20;99.90;;;;;;5053945;28;20483;-78
2022/08/21 04:31:12;;;;;;;17.48;3.47;;;15.20;99.90;;;;;;5053893;28;20057;-81
2022/08/21 04:33:38;;;;;;;11.07;3.00;;;15.20;99.90;;;;;;5053923;28;20060;-81
2022/08/21 04:36:05;;;;;;;9.73;2.63;;;15.10;99.90;;;;;;5053229;28;20043;-74
2022/08/21 04:38:31;;;;;;;15.63;2.97;;;15.40;99.90;;;;;;5053114;28;20025;-78
2022/08/21 04:40:57;;;;;;;15.45;4.20;;;15.50;99.90;;;;;;5053567;28;20128;-82
2022/08/21 04:43:23;;;;;;;12.00;2.60;;;15.50;99.90;;;;;;5053454;28;20021;-81
2022/08/21 04:45:50;;;;;;;11.57;3.30;;;15.60;99.90;;;;;;5053587;28;20021;-82
2022/08/21 04:48:18;;;;;;;12.25;3.15;;;15.60;99.90;;;;;;5053890;28;20461;-73
2022/08/21 04:50:47;;;;;;;11.23;3.15;;;15.70;99.90;;;;;;5035468;28;20017;-81
2022/08/21 04:53:38;;;;;;;14.13;3.35;;;15.70;99.90;;;;;;5053499;28;20033;-81
2022/08/21 04:56:08;;;;;;;12.90;3.47;;;15.60;99.90;;;;;;5052864;28;20060;-81
2022/08/21 04:58:37;;;;;;;13.43;2.72;;;15.60;99.90;;;;;;5052684;28;20159;-79
2022/08/21 05:01:06;;;;;;;10.82;2.78;;;15.70;99.90;;;;;;5053206;28;20028;-78
2022/08/21 05:03:34;;;;;;;15.05;3.10;;;15.60;99.90;;;;;;5053152;28;20115;-80
2022/08/21 05:06:00;;;;;;;23.55;3.05;;;15.50;99.90;;;;;;5053513;28;20028;-78
2022/08/21 05:08:27;;;;;;;11.35;2.97;;;15.50;99.90;;;;;;5053231;28;20025;-81
2022/08/21 05:10:54;;;;;;;13.55;2.75;;;15.60;99.90;;;;;;5053409;28;20040;-78
2022/08/21 05:13:20;;;;;;;16.92;3.47;;;15.40;99.90;;;;;;5053184;28;20369;-80
2022/08/21 05:15:46;;;;;;;14.07;3.65;;;15.50;99.90;;;;;;5053082;28;20051;-81
2022/08/21 05:18:12;;;;;;;13.25;3.22;;;15.80;99.90;;;;;;5052914;28;20032;-74
2022/08/21 05:20:38;;;;;;;12.93;3.30;;;15.80;99.90;;;;;;5053301;28;20035;-70
2022/08/21 05:23:12;;;;;;;15.75;3.05;;;15.90;99.90;;;;;;5035112;28;20112;-72
2022/08/21 05:25:38;;;;;;;8.95;2.88;;;16.00;99.90;;;;;;5053185;28;20040;-69
2022/08/21 05:28:05;;;;;;;14.93;2.70;;;15.90;99.90;;;;;;5053060;28;20037;-73
2022/08/21 05:30:31;;;;;;;18.70;3.58;;;16.00;99.90;;;;;;5053017;28;20021;-73
2022/08/21 05:32:59;;;;;;;14.10;3.30;;;16.10;99.90;;;;;;5052689;28;20064;-72
2022/08/21 05:35:25;;;;;;;11.93;2.80;;;16.20;99.90;;;;;;5052718;28;20044;-73
2022/08/21 05:37:51;;;;;;;14.23;3.15;;;16.10;99.90;;;;;;5035170;28;20506;-70
2022/08/21 05:40:18;;;;;;;14.85;3.30;;;16.10;99.90;;;;;;5033881;28;20120;-73
2022/08/21 05:42:44;;;;;;;13.18;2.53;;;16.30;99.90;;;;;;5052667;28;20032;-73
2022/08/21 05:45:10;;;;;;;13.15;3.42;;;16.30;99.90;;;;;;5052932;28;20025;-71
2022/08/21 05:47:37;;;;;;;11.38;3.53;;;16.50;99.90;;;;;;5052451;28;20648;-78
2022/08/21 05:50:04;;;;;;;14.75;3.47;;;16.40;99.90;;;;;;5052885;28;20029;-76
2022/08/21 05:52:30;;;;;;;16.05;3.38;;;16.50;99.90;;;;;;5035847;28;20091;-75
2022/08/21 05:54:55;;;;;;;16.58;3.90;;;16.50;99.90;;;;;;5048708;28;20033;-78
2022/08/21 05:57:22;;;;;;;9.50;2.85;;;16.50;99.90;;;;;;5052023;28;20044;-76
2022/08/21 05:59:48;;;;;;;13.00;3.60;;;16.60;99.90;;;;;;5039414;28;20350;-75
2022/08/21 06:02:14;;;;;;;20.42;3.65;;;16.70;99.90;;;;;;5047987;28;20021;-75
2022/08/21 06:04:40;;;;;;;14.90;3.33;;;16.90;99.90;;;;;;5059469;28;20029;-76
2022/08/21 06:07:06;;;;;;;14.85;2.78;;;16.60;99.90;;;;;;5056894;28;20020;-77
2022/08/21 06:09:33;;;;;;;13.32;3.40;;;16.70;99.90;;;;;;5048817;28;20086;-76
2022/08/21 06:12:03;;;;;;;17.52;3.45;;;16.80;99.90;;;;;;5050569;28;20039;-77
2022/08/21 06:14:29;;;;;;;16.37;3.43;;;17.00;99.90;;;;;;5057183;28;20021;-76
2022/08/21 06:17:06;;;;;;;15.02;3.13;;;17.00;99.90;;;;;;5062432;28;20787;-78
2022/08/21 06:19:32;;;;;;;13.90;3.45;;;17.20;99.90;;;;;;5058487;28;20036;-76
2022/08/21 06:21:58;;;;;;;16.10;3.78;;;17.20;99.90;;;;;;5032177;28;20035;-76
2022/08/21 06:24:25;;;;;;;15.95;3.30;;;17.20;99.90;;;;;;5058398;28;20052;-76
2022/08/21 06:26:51;;;;;;;16.10;3.53;;;17.20;99.90;;;;;;5055580;28;20079;-77
2022/08/21 06:29:17;;;;;;;24.52;3.80;;;17.40;99.90;;;;;;5063030;28;20028;-77
2022/08/21 06:31:43;;;;;;;13.48;2.80;;;17.00;99.90;;;;;;5052030;28;20486;-76
2022/08/21 06:34:09;;;;;;;10.23;2.78;;;17.20;99.90;;;;;;5041462;28;20048;-77
2022/08/21 06:36:35;;;;;;;17.08;3.58;;;17.40;99.90;;;;;;5054903;28;20041;-78
2022/08/21 06:39:02;;;;;;;11.48;3.00;;;17.60;99.90;;;;;;5045570;28;20017;-75
2022/08/21 06:41:27;;;;;;;15.52;3.90;;;17.60;99.90;;;;;;5062091;28;20036;-76
2022/08/21 06:43:54;;;;;;;20.83;4.80;;;17.90;99.90;;;;;;5074286;28;20377;-77
2022/08/21 06:46:20;;;;;;;17.55;3.45;;;17.90;99.90;;;;;;5063763;28;20427;-76
2022/08/21 06:48:46;;;;;;;12.35;3.65;;;17.70;99.90;;;;;;5043488;28;20436;-76
2022/08/21 06:51:12;;;;;;;10.35;3.47;;;17.70;99.90;;;;;;5058095;28;20020;-77
2022/08/21 06:53:38;;;;;;;12.20;3.25;;;17.90;99.90;;;;;;5057061;28;20032;-76
2022/08/21 06:56:04;;;;;;;14.40;3.10;;;18.00;99.90;;;;;;5060310;28;20033;-77
2022/08/21 06:58:30;;;;;;;19.00;3.30;;;18.00;99.90;;;;;;5048413;28;20025;-75
2022/08/21 07:00:57;;;;;;;20.13;3.78;;;18.00;99.90;;;;;;5025123;28;20359;-75
2022/08/21 07:03:27;;;;;;;14.32;3.63;;;18.20;99.90;;;;;;5048716;28;20028;-74
2022/08/21 07:05:54;;;;;;;19.77;4.07;;;18.40;99.90;;;;;;5060309;28;20049;-73
2022/08/21 07:08:21;;;;;;;16.80;3.63;;;18.40;99.90;;;;;;5031291;28;20119;-75
2022/08/21 07:10:48;;;;;;;16.50;4.43;;;18.50;99.90;;;;;;5053019;28;20047;-74
2022/08/21 07:13:14;;;;;;;12.80;3.50;;;18.50;99.90;;;;;;5059726;28;20028;-74
2022/08/21 07:15:40;;;;;;;16.08;4.13;;;18.60;99.90;;;;;;5060971;28;20392;-75
2022/08/21 07:18:06;;;;;;;15.93;2.97;;;18.90;99.90;;;;;;5055793;28;20092;-75
2022/08/21 07:20:33;;;;;;;17.13;3.33;;;18.90;99.90;;;;;;5010627;28;20044;-75
2022/08/21 07:23:03;;;;;;;12.82;3.53;;;19.10;99.90;;;;;;5052691;28;20025;-74
2022/08/21 07:25:29;;;;;;;19.17;4.40;;;19.30;99.90;;;;;;5055417;28;20037;-75
2022/08/21 07:27:55;;;;;;;14.82;3.55;;;19.40;99.90;;;;;;5059702;28;20032;-74
2022/08/21 07:30:21;;;;;;;13.35;3.72;;;19.30;99.90;;;;;;5054656;28;20112;-74
2022/08/21 07:32:49;;;;;;;18.35;3.83;;;19.10;99.90;;;;;;5044803;28;20030;-73
2022/08/21 07:35:15;;;;;;;20.90;3.97;;;19.30;99.90;;;;;;5042885;28;20025;-75
2022/08/21 07:37:41;;;;;;;17.15;3.75;;;19.10;99.90;;;;;;5039218;28;20063;-76
2022/08/21 07:40:08;;;;;;;22.50;4.30;;;19.30;99.90;;;;;;5028122;28;20025;-75
2022/08/21 07:42:33;;;;;;;16.10;3.80;;;19.20;99.90;;;;;;5035227;28;20056;-74
2022/08/21 07:44:59;;;;;;;21.25;3.85;;;19.20;99.90;;;;;;5054663;28;20436;-74
2022/08/21 07:47:25;;;;;;;15.75;3.63;;;19.40;99.90;;;;;;5054741;28;20021;-75
2022/08/21 07:49:51;;;;;;;14.15;3.97;;;19.40;99.90;;;;;;5054921;28;20032;-74
2022/08/21 07:52:16;;;;;;;14.48;3.50;;;19.60;99.90;;;;;;5054897;28;20411;-76
2022/08/21 07:54:42;;;;;;;19.45;4.03;;;20.00;99.90;;;;;;5054903;28;20044;-76
2022/08/21 07:57:08;;;;;;;19.25;4.05;;;19.60;99.90;;;;;;5054383;28;20040;-74
2022/08/21 07:59:34;;;;;;;21.75;5.10;;;19.80;99.90;;;;;;5054458;28;20483;-75
2022/08/21 08:02:00;;;;;;;15.32;3.47;;;20.00;99.90;;;;;;5054709;28;20025;-74
2022/08/21 08:04:26;;;;;;;15.05;3.17;;;20.00;99.90;;;;;;5054488;28;20508;-75
2022/08/21 08:06:52;;;;;;;20.30;3.53;;;20.10;99.90;;;;;;5041390;28;20092;-75
2022/08/21 08:09:17;;;;;;;15.13;3.88;;;20.10;99.90;;;;;;5018349;28;20063;-75
2022/08/21 08:11:43;;;;;;;18.98;3.63;;;20.20;99.90;;;;;;5034757;28;20014;-76
2022/08/21 08:14:10;;;;;;;16.85;4.22;;;20.40;99.90;;;;;;5050522;28;20083;-75
2022/08/21 08:16:35;;;;;;;12.13;3.38;;;20.40;99.90;;;;;;5033850;28;20037;-75
2022/08/21 08:19:03;;;;;;;18.55;3.90;;;20.40;99.90;;;;;;5050896;28;20048;-75
2022/08/21 08:21:29;;;;;;;13.82;3.90;;;20.40;99.90;;;;;;5050625;28;20052;-74
2022/08/21 08:23:54;;;;;;;15.07;3.50;;;20.30;99.90;;;;;;5048885;28;20420;-74
2022/08/21 08:26:20;;;;;;;16.27;3.65;;;20.40;99.90;;;;;;5050816;28;20090;-75
2022/08/21 08:28:47;;;;;;;21.80;4.22;;;20.80;99.90;;;;;;5048393;28;20037;-76
2022/08/21 08:31:13;;;;;;;20.70;3.70;;;21.20;99.90;;;;;;5051098;28;20462;-75
2022/08/21 08:33:40;;;;;;;15.30;4.13;;;21.10;99.90;;;;;;5032974;28;20025;-74
2022/08/21 08:36:13;;;;;;;14.02;3.83;;;20.90;99.90;;;;;;5039739;28;20037;-74
2022/08/21 08:38:39;;;;;;;15.43;3.55;;;21.20;99.90;;;;;;5049291;28;20025;-75
2022/08/21 08:41:21;;;;;;;13.63;3.45;;;21.00;99.90;;;;;;5050039;28;20045;-74
2022/08/21 08:43:57;;;;;;;21.83;3.77;;;21.00;99.90;;;;;;5054101;28;20112;-76
2022/08/21 08:46:35;;;;;;;16.20;4.05;;;20.80;99.90;;;;;;5053817;28;20323;-74
2022/08/21 08:49:09;;;;;;;17.67;3.75;;;20.70;99.90;;;;;;5054046;28;20025;-75
2022/08/21 08:52:01;;;;;;;13.73;2.72;;;20.90;99.90;;;;;;5053762;28;20036;-75
2022/08/21 08:54:31;;;;;;;11.80;3.67;;;21.10;99.90;;;;;;5052875;28;20036;-75
2022/08/21 08:57:02;;;;;;;9.55;2.63;;;21.50;99.90;;;;;;5053378;28;20047;-75
2022/08/21 08:59:46;;;;;;;12.15;2.67;;;21.20;99.90;;;;;;5047120;28;20473;-75
2022/08/21 09:02:14;;;;;;;18.85;3.92;;;21.30;99.90;;;;;;5044127;28;20059;-76
2022/08/21 09:04:40;;;;;;;17.58;2.72;;;21.30;99.90;;;;;;5044752;28;20095;-77
2022/08/21 09:07:15;;;;;;;11.15;2.72;;;21.40;99.90;;;;;;5042664;28;20497;-74
2022/08/21 09:10:33;;;;;;;12.73;2.88;;;21.40;99.90;;;;;;5045106;28;20561;-75
2022/08/21 09:13:14;;;;;;;12.32;3.22;;;21.30;99.90;;;;;;5023110;28;20402;-76
2022/08/21 09:16:05;;;;;;;10.70;2.63;;;21.80;99.90;;;;;;5043100;28;20482;-75
2022/08/21 09:18:46;;;;;;;11.23;3.80;;;21.50;99.90;;;;;;5046074;28;20097;-75
2022/08/21 09:21:33;;;;;;;13.75;2.80;;;21.70;99.90;;;;;;5047030;28;20401;-76
2022/08/21 09:24:36;;;;;;;19.23;2.80;;;22.20;99.90;;;;;;5028623;28;20026;-77
2022/08/21 09:27:10;;;;;;;12.38;3.30;;;22.40;99.90;;;;;;5034931;28;20025;-77
2022/08/21 09:29:47;;;;;;;14.35;2.72;;;22.60;99.90;;;;;;5027730;28;20087;-75
2022/08/21 09:32:18;;;;;;;11.82;2.58;;;22.20;99.90;;;;;;5015985;28;20079;-76
2022/08/21 09:34:57;;;;;;;13.95;2.67;;;21.90;99.90;;;;;;5031585;28;20112;-77
2022/08/21 09:37:23;;;;;;;18.05;3.22;;;22.00;99.90;;;;;;5036543;28;20079;-76
2022/08/21 09:39:48;;;;;;;17.75;3.55;;;21.90;99.90;;;;;;5032909;28;20014;-76
2022/08/21 09:42:23;;;;;;;18.92;3.00;;;21.80;99.90;;;;;;5051796;28;20028;-75
2022/08/21 09:45:04;;;;;;;17.42;3.80;;;21.90;99.90;;;;;;5044125;28;20432;-76
2022/08/21 09:47:30;;;;;;;21.70;3.78;;;21.70;99.90;;;;;;5040023;28;20842;-75
2022/08/21 09:49:55;;;;;;;17.33;3.47;;;22.00;99.90;;;;;;5048884;28;20377;-75
2022/08/21 09:52:23;;;;;;;19.17;3.60;;;22.20;99.90;;;;;;5037427;28;20029;-74
2022/08/21 09:54:54;;;;;;;14.80;3.45;;;21.80;99.90;;;;;;5036529;28;20045;-74
2022/08/21 09:57:42;;;;;;;16.55;3.08;;;21.80;99.90;;;;;;5033778;28;20098;-74
2022/08/21 10:00:25;;;;;;;12.52;3.38;;;22.30;99.90;;;;;;5024065;28;20362;-74
2022/08/21 10:02:51;;;;;;;15.85;4.32;;;22.70;99.90;;;;;;5039447;28;20035;-75
2022/08/21 10:05:21;;;;;;;18.08;4.13;;;22.40;99.90;;;;;;5035724;28;20108;-75
2022/08/21 10:07:47;;;;;;;17.63;3.92;;;22.50;99.90;;;;;;5052733;28;20469;-74
2022/08/21 10:10:29;;;;;;;20.63;4.35;;;23.00;99.90;;;;;;5054511;28;20107;-74
2022/08/21 10:13:16;;;;;;;18.85;3.67;;;22.60;99.90;;;;;;5047692;28;20043;-75
2022/08/21 10:15:48;;;;;;;21.80;3.83;;;22.80;99.90;;;;;;5040807;28;20043;-75
2022/08/21 10:18:17;;;;;;;18.92;4.13;;;23.40;99.90;;;;;;5045293;28;20112;-74
2022/08/21 10:21:18;;;;;;;20.23;5.35;;;23.30;99.90;;;;;;5049563;28;20025;-76
2022/08/21 10:24:03;;;;;;;14.73;4.47;;;23.20;99.90;;;;;;5040162;28;20099;-74
2022/08/21 10:26:45;;;;;;;15.82;4.38;;;23.50;99.90;;;;;;5043932;28;20330;-74
2022/08/21 10:29:56;;;;;;;13.90;3.70;;;23.50;99.90;;;;;;5045637;28;20017;-74
2022/08/21 10:32:49;;;;;;;14.38;4.05;;;23.90;99.90;;;;;;5045031;28;20051;-74
2022/08/21 10:35:18;;;;;;;15.73;3.95;;;23.80;99.90;;;;;;5024399;28;20048;-75
2022/08/21 10:37:58;;;;;;;18.38;4.78;;;24.10;99.90;;;;;;5041067;28;20110;-75
2022/08/21 10:40:50;;;;;;;17.33;4.82;;;24.30;99.90;;;;;;5048193;28;20029;-75
2022/08/21 10:43:33;;;;;;;;;;;24.80;99.90;;;;;;5045101;28;20076;-75
2022/08/21 10:46:14;;;;;;;22.15;6.03;;;24.40;99.90;;;;;;5047555;28;20392;-72
2022/08/21 10:49:08;;;;;;;11.95;4.57;;;24.10;99.90;;;;;;5042528;28;20025;-74
2022/08/21 10:52:03;;;;;;;15.57;4.28;;;23.20;99.90;;;;;;5050536;28;20060;-75
2022/08/21 10:54:58;;;;;;;14.38;3.72;;;23.30;99.90;;;;;;5045988;28;21398;-75
2022/08/21 10:57:31;;;;;;;18.77;3.80;;;23.50;99.90;;;;;;5053997;28;20106;-76
2022/08/21 11:00:04;;;;;;;16.35;3.80;;;24.10;99.90;;;;;;5037613;28;20063;-75
2022/08/21 11:02:39;;;;;;;17.77;4.03;;;23.90;99.90;;;;;;5052275;28;20035;-76
2022/08/21 11:05:10;;;;;;;17.85;3.65;;;24.30;99.90;;;;;;5052454;28;20040;-75
2022/08/21 11:07:48;;;;;;;10.67;3.17;;;23.90;99.90;;;;;;5052020;28;20593;-75
2022/08/21 11:10:27;;;;;;;15.45;2.95;;;24.10;99.90;;;;;;5051789;28;20032;-75
2022/08/21 11:13:33;;;;;;;13.25;3.22;;;23.60;99.90;;;;;;5052716;28;20477;-75
2022/08/21 11:16:02;;;;;;;17.05;3.53;;;23.90;99.90;;;;;;5027573;28;20076;-76
2022/08/21 11:18:34;;;;;;;14.90;3.15;;;24.20;99.90;;;;;;5050265;28;20036;-75
2022/08/21 11:21:27;;;;;;;17.10;2.50;;;24.30;99.90;;;;;;5052235;28;20039;-76
2022/08/21 11:23:57;;;;;;;17.27;3.05;;;23.30;99.90;;;;;;5050276;28;20096;-75
2022/08/21 11:26:35;;;;;;;15.50;3.75;;;23.90;99.90;;;;;;5050395;28;20091;-76
2022/08/21 11:29:27;;;;;;;18.30;3.70;;;23.80;99.90;;;;;;5051174;28;20375;-75
2022/08/21 11:32:11;;;;;;;;;;;23.80;99.90;;;;;;5039553;28;20066;-76
2022/08/21 11:34:57;;;;;;;13.98;3.83;;;24.10;99.90;;;;;;5052058;28;19916;-75
2022/08/21 11:38:05;;;;;;;10.45;3.42;;;24.50;99.90;;;;;;5028754;28;20495;-76
2022/08/21 11:40:48;;;;;;;11.25;3.25;;;23.70;99.70;;;;;;5054306;28;20388;-77
2022/08/21 11:43:38;;;;;;;13.80;3.10;;;24.40;99.60;;;;;;5024488;28;20548;-77
2022/08/21 11:46:18;;;;;;;13.73;2.80;;;25.00;99.00;;;;;;5056224;28;20112;-77
2022/08/21 11:49:03;;;;;;;11.38;2.90;;;25.30;98.50;;;;;;5034653;28;20029;-77
2022/08/21 11:51:40;;;;;;;17.85;3.13;;;25.70;97.30;;;;;;5038420;28;20056;-76
2022/08/21 11:54:15;;;;;;;16.67;3.00;;;25.70;96.60;;;;;;5038735;28;20091;-76
2022/08/21 11:57:13;;;;;;;15.30;3.50;;;26.20;97.00;;;;;;5044030;28;20044;-73
2022/08/21 11:59:45;;;;;;;18.45;3.60;;;26.50;96.20;;;;;;5002316;28;20093;-77
2022/08/21 12:02:14;;;;;;;;;;;26.40;94.80;;;;;;5053372;28;20029;-75
2022/08/21 12:04:51;;;;;;;10.65;3.38;;;25.90;94.90;;;;;;5045220;28;19909;-76
2022/08/21 12:07:37;;;;;;;10.55;2.63;;;25.40;96.00;;;;;;5053045;28;20079;-77
2022/08/21 12:10:20;;;;;;;11.30;3.00;;;25.40;96.40;;;;;;5047388;28;20389;-77
2022/08/21 12:12:46;;;;;;;9.32;2.80;;;26.30;95.20;;;;;;5067620;28;20487;-78
2022/08/21 12:15:21;;;;;;;8.95;3.08;;;25.70;96.30;;;;;;5067354;28;20362;-77
2022/08/21 12:18:26;;;;;;;11.80;2.80;;;25.20;96.40;;;;;;5059733;28;20025;-76
2022/08/21 12:21:03;;;;;;;15.73;3.13;;;25.20;96.80;;;;;;5033279;28;20071;-76
2022/08/21 12:23:47;;;;;;;10.40;3.00;;;25.40;96.40;;;;;;5060861;28;20092;-78
2022/08/21 12:26:18;;;;;;;15.38;4.07;;;25.80;95.70;;;;;;5054259;28;20037;-77
2022/08/21 12:28:44;;;;;;;14.00;2.73;;;26.10;95.70;;;;;;5050576;28;20031;-77
2022/08/21 12:31:46;;;;;;;16.65;3.20;;;25.40;96.50;;;;;;5049907;28;20108;-77
2022/08/21 12:34:15;;;;;;;14.23;2.97;;;26.00;96.20;;;;;;5048259;28;20071;-77
2022/08/21 12:36:49;;;;;;;8.98;2.95;;;26.10;95.30;;;;;;5032988;28;20143;-77
2022/08/21 12:39:23;;;;;;;11.77;2.90;;;26.00;96.20;;;;;;5044534;28;20033;-76
2022/08/21 12:42:26;;;;;;;11.25;2.80;;;25.70;96.20;;;;;;5047814;28;20021;-77
2022/08/21 12:45:01;;;;;;;19.23;4.13;;;26.10;96.30;;;;;;5032309;28;20044;-75
2022/08/21 12:47:34;;;;;;;14.93;2.92;;;25.50;96.50;;;;;;5050984;28;20047;-75
2022/08/21 12:50:12;;;;;;;11.45;3.00;;;26.60;96.50;;;;;;5048300;28;20473;-77
2022/08/21 12:52:51;;;;;;;15.70;2.70;;;27.00;95.20;;;;;;5048707;28;20561;-75
2022/08/21 12:55:29;;;;;;;8.63;2.50;;;25.50;95.70;;;;;;5028787;28;20570;-76
2022/08/21 12:57:56;;;;;;;10.52;2.97;;;26.70;95.10;;;;;;5050220;28;20114;-75